Time;durP1;ratioP1;P1;durP2;ratioP2;P2;SDS_P1;SDS_P2;PMS_P1;PMS_P2;Temp;Humidity;BMP_temperature;BMP_pressure;BME280_temperature;BME280_humidity;BME280_pressure;Samples;Min_cycle;Max_cycle;Signal;HPM_P1;HPM_P2
2021/05/28 00:00:35;;;;;;;10.02;6.45;;;;;;;10.83;73.17;100612.09;4996163;28;20061;-60
2021/05/28 00:03:01;;;;;;;8.73;6.55;;;;;;;10.83;73.05;100606.91;4995103;28;20047;-60
2021/05/28 00:05:26;;;;;;;10.55;6.28;;;;;;;10.82;73.05;100605.19;4996011;28;20041;-60
2021/05/28 00:07:55;;;;;;;10.02;5.60;;;;;;;10.81;73.15;100613.81;4995077;28;20057;-59
2021/05/28 00:10:21;;;;;;;7.18;5.57;;;;;;;10.81;72.98;100617.28;4996226;28;20030;-60
2021/05/28 00:12:47;;;;;;;10.18;7.43;;;;;;;10.81;73.17;100612.09;4996294;28;20056;-60
2021/05/28 00:15:13;;;;;;;9.85;6.15;;;;;;;10.82;72.85;100620.75;4996396;28;20031;-60
2021/05/28 00:17:41;;;;;;;8.50;6.28;;;;;;;10.82;72.95;100615.56;4995570;28;20046;-60
2021/05/28 00:20:10;;;;;;;7.53;6.18;;;;;;;10.81;73.09;100613.81;4996344;28;20052;-59
2021/05/28 00:22:36;;;;;;;10.23;6.20;;;;;;;10.80;72.97;100606.88;4978495;28;20493;-60
2021/05/28 00:25:02;;;;;;;10.88;6.57;;;;;;;10.80;73.14;100609.47;4995874;28;20158;-60
2021/05/28 00:27:31;;;;;;;7.15;5.63;;;;;;;10.79;73.14;100605.97;4995771;28;20121;-61
2021/05/28 00:30:00;;;;;;;9.93;6.45;;;;;;;10.79;73.15;100611.16;4995625;28;20085;-60
2021/05/28 00:32:28;;;;;;;10.02;6.85;;;;;;;10.78;73.18;100614.59;4996049;28;20069;-60
2021/05/28 00:34:54;;;;;;;7.75;6.35;;;;;;;10.79;73.12;100610.31;4995005;28;20030;-60
2021/05/28 00:37:20;;;;;;;9.55;6.50;;;;;;;10.79;72.94;100612.91;5011055;28;20551;-60
2021/05/28 00:39:48;;;;;;;9.15;5.93;;;;;;;10.77;73.11;100605.06;4994422;28;20030;-59
2021/05/28 00:42:13;;;;;;;9.50;6.50;;;;;;;10.78;72.95;100605.97;4994206;28;20038;-60
2021/05/28 00:44:42;;;;;;;9.98;6.57;;;;;;;10.76;72.75;100608.50;4994335;28;20080;-60
2021/05/28 00:47:08;;;;;;;9.93;6.22;;;;;;;10.77;73.02;100617.16;4978035;28;20042;-60
2021/05/28 00:49:36;;;;;;;9.65;6.80;;;;;;;10.76;73.07;100608.50;4995276;28;20030;-60
2021/05/28 00:52:03;;;;;;;11.18;7.00;;;;;;;10.76;73.25;100610.22;4978073;28;20041;-59
2021/05/28 00:54:29;;;;;;;9.93;7.00;;;;;;;10.76;72.86;100605.03;4977991;28;20131;-60
2021/05/28 00:56:54;;;;;;;7.82;6.80;;;;;;;10.76;72.89;100607.63;5010221;28;20184;-59
2021/05/28 00:59:21;;;;;;;10.18;7.28;;;;;;;10.76;72.93;100611.09;5010375;28;20038;-60
2021/05/28 01:01:47;;;;;;;9.05;6.55;;;;;;;10.76;73.13;100607.63;4977538;28;20104;-60
2021/05/28 01:04:13;;;;;;;9.18;6.97;;;;;;;10.75;72.92;100608.47;4994388;28;20121;-60
2021/05/28 01:06:38;;;;;;;9.73;7.35;;;;;;;10.75;73.21;100619.69;4995245;28;20030;-60
2021/05/28 01:09:08;;;;;;;7.93;6.40;;;;;;;10.74;72.73;100617.09;4993829;28;20553;-61
2021/05/28 01:11:35;;;;;;;11.75;7.53;;;;;;;10.73;72.73;100618.81;4993544;28;20042;-60
2021/05/28 01:14:03;;;;;;;11.15;7.68;;;;;;;10.72;73.03;100619.66;4995086;28;20038;-60
2021/05/28 01:16:29;;;;;;;11.80;6.88;;;;;;;10.73;72.89;100617.91;4977498;28;20486;-60
2021/05/28 01:18:55;;;;;;;8.65;6.18;;;;;;;10.73;72.89;100616.22;4994777;28;20088;-60
2021/05/28 01:21:21;;;;;;;8.50;7.45;;;;;;;10.72;73.23;100614.47;4993637;28;20038;-60
2021/05/28 01:23:49;;;;;;;11.60;7.20;;;;;;;10.74;73.15;100617.09;4994943;28;20038;-60
2021/05/28 01:26:15;;;;;;;9.65;6.75;;;;;;;10.72;72.82;100617.06;4993583;28;20405;-60
2021/05/28 01:28:40;;;;;;;7.38;5.68;;;;;;;10.72;72.87;100624.84;5009810;28;20046;-60
2021/05/28 01:31:06;;;;;;;10.32;7.05;;;;;;;10.72;73.23;100623.94;4994658;28;20398;-59
2021/05/28 01:33:39;;;;;;;9.50;7.90;;;;;;;10.72;72.91;100619.66;4994640;28;20045;-60
2021/05/28 01:36:05;;;;;;;10.50;6.97;;;;;;;10.71;73.17;100611.81;4993658;28;20046;-60
2021/05/28 01:38:30;;;;;;;12.20;7.03;;;;;;;10.71;72.77;100617.00;4994469;28;20034;-60
2021/05/28 01:40:55;;;;;;;9.93;7.60;;;;;;;10.70;72.55;100613.53;4994834;28;20084;-60
2021/05/28 01:43:21;;;;;;;9.90;6.82;;;;;;;10.69;72.88;100605.72;4994590;28;20042;-59
2021/05/28 01:45:49;;;;;;;10.43;7.38;;;;;;;10.69;73.05;100605.72;4994322;28;20405;-59
2021/05/28 01:48:15;;;;;;;11.25;7.35;;;;;;;10.67;72.59;100610.88;4993162;28;20068;-60
2021/05/28 01:50:44;;;;;;;8.23;6.85;;;;;;;10.68;73.13;100609.13;4994012;28;20440;-59
2021/05/28 01:53:16;;;;;;;8.93;7.50;;;;;;;10.66;73.00;100616.91;4993911;28;20391;-59
2021/05/28 01:55:42;;;;;;;10.88;7.40;;;;;;;10.65;73.06;100613.44;4993011;28;20042;-59
2021/05/28 01:58:19;;;;;;;9.68;6.90;;;;;;;10.64;72.68;100609.09;4994569;28;20040;-60
2021/05/28 02:00:46;;;;;;;10.68;6.97;;;;;;;10.64;72.66;100616.88;4994416;28;20042;-60
2021/05/28 02:03:12;;;;;;;10.73;7.25;;;;;;;10.65;72.78;100617.72;4993118;28;20049;-60
2021/05/28 02:05:38;;;;;;;8.32;6.80;;;;;;;10.65;72.88;100616.03;4994124;28;20121;-60
2021/05/28 02:08:06;;;;;;;10.07;6.57;;;;;;;10.64;73.10;100622.06;4994105;28;20041;-61
2021/05/28 02:10:32;;;;;;;10.57;6.85;;;;;;;10.64;72.95;100621.16;4992939;28;20413;-59
2021/05/28 02:12:58;;;;;;;9.23;6.32;;;;;;;10.65;73.05;100625.50;4994165;28;20038;-59
2021/05/28 02:15:24;;;;;;;8.50;5.82;;;;;;;10.64;73.12;100632.41;4993930;28;20035;-60
2021/05/28 02:17:53;;;;;;;9.70;7.30;;;;;;;10.64;73.07;100634.13;4976820;28;20034;-60
2021/05/28 02:20:19;;;;;;;9.23;7.13;;;;;;;10.63;73.18;100632.38;4976459;28;20038;-60
2021/05/28 02:22:45;;;;;;;9.75;6.55;;;;;;;10.62;72.48;100628.91;4994038;28;20042;-60
2021/05/28 02:25:13;;;;;;;11.77;7.40;;;;;;;10.61;72.85;100632.34;4992878;28;20505;-60
2021/05/28 02:27:38;;;;;;;9.23;6.88;;;;;;;10.61;73.05;100628.84;4994096;28;20042;-60
2021/05/28 02:30:04;;;;;;;9.00;7.30;;;;;;;10.61;73.12;100631.44;4992677;28;20062;-60
2021/05/28 02:32:29;;;;;;;10.55;7.53;;;;;;;10.60;72.99;100629.69;4994248;28;20042;-59
2021/05/28 02:34:55;;;;;;;9.10;7.13;;;;;;;10.59;72.89;100628.81;5009231;28;20512;-60
2021/05/28 02:37:21;;;;;;;10.18;7.30;;;;;;;10.57;72.98;100627.91;4993454;28;20493;-60
2021/05/28 02:39:46;;;;;;;9.35;7.13;;;;;;;10.57;73.01;100630.50;4993920;28;20038;-60
2021/05/28 02:42:12;;;;;;;8.48;7.57;;;;;;;10.58;73.13;100629.66;5008585;28;20186;-60
2021/05/28 02:44:38;;;;;;;11.18;7.43;;;;;;;10.56;72.95;100623.56;4993930;28;20043;-60
2021/05/28 02:47:04;;;;;;;11.90;7.60;;;;;;;10.56;72.75;100628.75;4993908;28;20042;-60
2021/05/28 02:49:32;;;;;;;10.95;8.23;;;;;;;10.56;73.02;100627.88;4993899;28;20041;-60
2021/05/28 02:51:58;;;;;;;12.82;7.72;;;;;;;10.54;72.69;100627.81;4976120;28;20058;-60
2021/05/28 02:54:25;;;;;;;9.10;7.07;;;;;;;10.54;72.81;100627.81;4993756;28;20038;-59
2021/05/28 02:56:50;;;;;;;10.23;7.35;;;;;;;10.54;72.87;100627.81;5008949;28;20038;-60
2021/05/28 02:59:16;;;;;;;10.38;7.63;;;;;;;10.54;73.20;100629.56;4993993;28;20038;-59
2021/05/28 03:01:41;;;;;;;9.18;6.70;;;;;;;10.53;72.66;100628.66;4993634;28;20050;-60
2021/05/28 03:04:07;;;;;;;9.00;7.22;;;;;;;10.51;73.01;100626.03;4992477;28;20485;-60
2021/05/28 03:06:32;;;;;;;12.23;7.32;;;;;;;10.52;72.80;100629.50;4996253;28;20035;-59
2021/05/28 03:09:01;;;;;;;14.00;8.35;;;;;;;10.51;73.00;100627.75;4995835;28;20030;-59
2021/05/28 03:11:26;;;;;;;9.75;7.85;;;;;;;10.51;72.73;100631.22;4997538;28;20113;-60
2021/05/28 03:13:52;;;;;;;11.07;7.40;;;;;;;10.51;72.97;100630.31;4997484;28;20073;-60
2021/05/28 03:16:17;;;;;;;9.63;7.22;;;;;;;10.51;72.69;100645.88;4995974;28;20038;-60
2021/05/28 03:21:24;;;;;;;11.48;8.27;;;;;;;10.50;73.14;100650.19;4996652;28;20039;-61
2021/05/28 03:23:52;;;;;;;10.02;7.25;;;;;;;10.50;72.74;100652.78;4997380;28;20474;-61
2021/05/28 03:26:19;;;;;;;10.07;7.43;;;;;;;10.50;72.98;100654.53;4996680;28;20041;-59
2021/05/28 03:28:45;;;;;;;9.13;7.82;;;;;;;10.50;72.95;100657.97;4996993;28;20050;-59
2021/05/28 03:31:13;;;;;;;10.32;6.95;;;;;;;10.49;73.00;100648.44;4995793;28;20042;-59
2021/05/28 03:33:39;;;;;;;10.90;7.65;;;;;;;10.48;73.08;100658.78;4996950;28;20057;-59
2021/05/28 03:36:06;;;;;;;9.35;7.45;;;;;;;10.48;73.05;100651.88;4995629;28;20497;-60
2021/05/28 03:38:32;;;;;;;9.70;7.72;;;;;;;10.48;72.95;100657.06;4995527;28;20034;-59
2021/05/28 03:40:57;;;;;;;10.60;7.28;;;;;;;10.48;73.06;100658.78;4995556;28;20049;-59
2021/05/28 03:43:23;;;;;;;11.45;7.82;;;;;;;10.47;72.73;100650.13;4996920;28;20041;-59
2021/05/28 03:45:49;;;;;;;9.90;7.53;;;;;;;10.47;73.06;100651.84;5011955;28;20044;-59
2021/05/28 03:48:16;;;;;;;10.52;8.27;;;;;;;10.46;72.66;100663.91;4996477;28;20035;-59
2021/05/28 03:50:42;;;;;;;12.10;7.63;;;;;;;10.46;72.74;100657.88;4996129;28;20042;-59
2021/05/28 03:53:07;;;;;;;8.90;6.75;;;;;;;10.45;72.82;100658.69;5012140;28;20065;-60
2021/05/28 03:55:33;;;;;;;11.55;7.00;;;;;;;10.45;72.76;100656.97;4996761;28;20490;-59
2021/05/28 03:57:58;;;;;;;8.65;6.78;;;;;;;10.45;72.76;100662.16;4995090;28;20038;-59
2021/05/28 04:00:25;;;;;;;9.00;7.45;;;;;;;10.45;73.25;100659.56;4996462;28;20030;-60
2021/05/28 04:02:51;;;;;;;10.20;7.35;;;;;;;10.44;73.04;100662.97;4994936;28;20494;-60
2021/05/28 04:05:17;;;;;;;9.93;6.15;;;;;;;10.43;73.00;100668.13;4978670;28;20414;-61
2021/05/28 04:07:42;;;;;;;8.20;6.65;;;;;;;10.44;72.87;100667.31;4978777;28;20030;-60
2021/05/28 04:10:11;;;;;;;9.93;7.07;;;;;;;10.43;73.00;100660.38;5011687;28;20062;-60
2021/05/28 04:12:36;;;;;;;9.20;7.20;;;;;;;10.43;72.79;100658.63;4978812;28;20049;-60
2021/05/28 04:15:03;;;;;;;8.52;7.00;;;;;;;10.43;72.99;100663.81;4996228;28;20402;-60
2021/05/28 04:17:29;;;;;;;10.07;7.18;;;;;;;10.42;72.96;100666.38;4978075;28;20041;-59
2021/05/28 04:19:54;;;;;;;9.38;7.97;;;;;;;10.41;73.05;100668.09;5010854;28;20050;-59
2021/05/28 04:22:20;;;;;;;13.32;8.13;;;;;;;10.41;72.81;100659.44;4996505;28;20030;-59
2021/05/28 04:24:47;;;;;;;9.52;7.70;;;;;;;10.40;72.76;100671.53;4996083;28;20073;-59
2021/05/28 04:27:15;;;;;;;12.77;8.20;;;;;;;10.40;72.96;100673.22;4995504;28;20505;-59
2021/05/28 04:29:41;;;;;;;11.13;8.15;;;;;;;10.39;73.13;100676.66;4996324;28;20065;-59
2021/05/28 04:32:09;;;;;;;13.50;7.90;;;;;;;10.38;72.85;100685.22;4994671;28;20553;-60
2021/05/28 04:34:37;;;;;;;9.45;7.95;;;;;;;10.37;73.16;100689.56;4994618;28;20081;-60
2021/05/28 04:37:03;;;;;;;12.07;8.23;;;;;;;10.36;72.99;100682.63;5011365;28;20489;-60
2021/05/28 04:39:28;;;;;;;16.25;10.70;;;;;;;10.37;73.21;100686.97;4995566;28;20049;-59
2021/05/28 04:41:56;;;;;;;11.32;8.48;;;;;;;10.36;72.98;100691.25;4995589;28;20034;-59
2021/05/28 04:44:21;;;;;;;11.23;8.35;;;;;;;10.36;73.16;100688.66;4978233;28;20038;-60
2021/05/28 04:46:47;;;;;;;13.80;9.20;;;;;;;10.35;72.86;100692.09;4995066;28;20038;-60
2021/05/28 04:49:13;;;;;;;10.90;8.68;;;;;;;10.34;73.08;100685.19;4995545;28;20042;-60
2021/05/28 04:51:39;;;;;;;16.55;9.65;;;;;;;10.35;73.07;100696.41;4995966;28;20058;-60
2021/05/28 04:54:05;;;;;;;13.02;9.25;;;;;;;10.35;72.93;100691.22;4994223;28;20508;-59
2021/05/28 04:56:30;;;;;;;15.35;10.52;;;;;;;10.34;72.86;100692.94;4994131;28;20121;-60
2021/05/28 04:58:56;;;;;;;12.63;9.82;;;;;;;10.34;72.65;100690.34;4994973;28;20044;-60
2021/05/28 05:01:22;;;;;;;16.17;10.38;;;;;;;10.34;73.06;100689.47;5010282;28;20161;-60
2021/05/28 05:03:51;;;;;;;12.63;9.85;;;;;;;10.33;73.32;100688.59;4977983;28;20391;-60
2021/05/28 05:06:19;;;;;;;14.98;9.70;;;;;;;10.34;72.60;100690.34;4995265;28;20034;-60
2021/05/28 05:08:45;;;;;;;11.82;10.02;;;;;;;10.33;72.85;100696.38;4994040;28;20053;-60
2021/05/28 05:11:13;;;;;;;17.30;9.95;;;;;;;10.34;72.98;100702.41;4994818;28;20038;-60
2021/05/28 05:13:44;;;;;;;17.15;10.75;;;;;;;10.33;72.89;100708.44;4994994;28;20442;-59
2021/05/28 05:16:09;;;;;;;11.57;9.48;;;;;;;10.33;73.11;100709.31;4957962;28;20129;-60
2021/05/28 05:18:34;;;;;;;13.95;10.63;;;;;;;10.32;73.28;100717.94;4974405;28;20122;-59
2021/05/28 05:21:02;;;;;;;14.60;9.90;;;;;;;10.33;73.17;100718.81;4975510;28;20030;-59
2021/05/28 05:23:28;;;;;;;17.42;11.50;;;;;;;10.33;72.89;100729.16;4975520;28;20070;-59
2021/05/28 05:25:53;;;;;;;13.27;9.57;;;;;;;10.32;73.00;100727.41;4975595;28;20059;-60
2021/05/28 05:28:19;;;;;;;13.20;9.85;;;;;;;10.32;72.87;100735.19;4974628;28;20034;-59
2021/05/28 05:30:46;;;;;;;15.93;9.88;;;;;;;10.32;73.15;100738.66;4974089;28;20066;-60
2021/05/28 05:33:12;;;;;;;15.02;11.05;;;;;;;10.32;73.29;100738.66;4974056;28;20121;-60
2021/05/28 05:35:37;;;;;;;18.17;9.90;;;;;;;10.32;72.88;100738.66;4958298;28;20126;-60
2021/05/28 05:38:08;;;;;;;15.10;10.38;;;;;;;10.32;72.97;100733.47;4974925;28;20101;-59
2021/05/28 05:40:35;;;;;;;13.50;10.20;;;;;;;10.32;72.96;100736.06;4956747;28;20089;-60
2021/05/28 05:43:00;;;;;;;14.13;11.18;;;;;;;10.32;73.15;100728.31;4957742;28;20086;-60
2021/05/28 05:45:26;;;;;;;13.80;10.38;;;;;;;10.31;72.89;100736.91;4974890;28;20030;-60
2021/05/28 05:47:51;;;;;;;12.93;9.52;;;;;;;10.31;73.07;100733.41;4973474;28;20043;-60
2021/05/28 05:50:17;;;;;;;14.88;10.35;;;;;;;10.32;72.92;100742.94;4973835;28;20100;-60
2021/05/28 05:52:42;;;;;;;14.80;10.43;;;;;;;10.31;72.83;100736.91;4975378;28;20039;-59
2021/05/28 05:55:10;;;;;;;13.30;11.68;;;;;;;10.31;72.81;100751.56;4974899;28;20038;-59
2021/05/28 05:57:35;;;;;;;16.63;12.35;;;;;;;10.30;73.13;100742.91;4974788;28;20038;-59
2021/05/28 06:00:01;;;;;;;15.95;11.35;;;;;;;10.31;73.07;100747.28;4973569;28;20134;-59
2021/05/28 06:02:29;;;;;;;16.13;11.50;;;;;;;10.29;73.03;100743.75;4974734;28;20043;-60
2021/05/28 06:04:54;;;;;;;13.32;10.60;;;;;;;10.29;72.88;100748.94;4975002;28;20045;-60
2021/05/28 06:07:24;;;;;;;16.80;11.07;;;;;;;10.28;73.16;100748.88;4974805;28;20046;-59
2021/05/28 06:09:50;;;;;;;15.82;11.77;;;;;;;10.29;73.13;100745.44;4974938;28;20174;-59
2021/05/28 06:12:15;;;;;;;13.93;11.02;;;;;;;10.28;73.10;100752.34;4974602;28;20534;-59
2021/05/28 06:14:43;;;;;;;13.43;11.20;;;;;;;10.28;73.12;100756.66;4973462;28;20093;-60
2021/05/28 06:17:11;;;;;;;16.65;11.15;;;;;;;10.27;72.98;100753.19;4957433;28;20065;-60
2021/05/28 06:19:37;;;;;;;15.18;10.23;;;;;;;10.28;72.85;100748.88;4974494;28;20042;-60
2021/05/28 06:22:02;;;;;;;13.75;10.32;;;;;;;10.28;72.97;100751.47;4974586;28;20043;-59
2021/05/28 06:24:31;;;;;;;16.50;11.27;;;;;;;10.27;72.97;100753.19;4974720;28;20045;-59
2021/05/28 06:26:56;;;;;;;15.90;11.63;;;;;;;10.27;73.17;100754.91;4973204;28;20511;-59
2021/05/28 06:29:24;;;;;;;17.17;11.88;;;;;;;10.28;73.24;100754.06;4974586;28;20077;-60
2021/05/28 06:31:52;;;;;;;16.52;11.18;;;;;;;10.28;73.04;100754.06;4974308;28;20035;-59
2021/05/28 06:34:20;;;;;;;20.65;11.95;;;;;;;10.27;73.12;100748.00;4974585;28;20077;-59
2021/05/28 06:36:50;;;;;;;14.35;12.00;;;;;;;10.27;73.03;100755.78;4957119;28;20050;-60
2021/05/28 06:39:18;;;;;;;16.33;12.60;;;;;;;10.27;73.27;100753.19;4975495;28;20039;-59
2021/05/28 06:41:44;;;;;;;15.57;11.45;;;;;;;10.28;73.15;100757.53;4961062;28;20039;-59
2021/05/28 06:44:11;;;;;;;16.77;11.45;;;;;;;10.28;73.20;100761.81;4978324;28;20034;-60
2021/05/28 06:46:38;;;;;;;16.05;11.52;;;;;;;10.28;73.08;100760.13;4960916;28;20050;-60
2021/05/28 06:49:06;;;;;;;15.63;11.82;;;;;;;10.28;72.75;100765.31;4961064;28;20035;-59
2021/05/28 06:51:33;;;;;;;17.15;11.80;;;;;;;10.28;72.94;100767.00;4960980;28;20038;-59
2021/05/28 06:54:02;;;;;;;14.40;11.95;;;;;;;10.29;73.08;100771.34;4978257;28;20491;-60
2021/05/28 06:56:27;;;;;;;17.80;12.23;;;;;;;10.28;73.21;100773.09;4961216;28;20461;-59
2021/05/28 06:58:57;;;;;;;16.63;11.05;;;;;;;10.29;73.32;100773.94;4978357;28;20118;-60
2021/05/28 07:01:23;;;;;;;21.25;11.70;;;;;;;10.29;73.06;100773.94;4978247;28;20444;-60
2021/05/28 07:03:51;;;;;;;16.90;11.90;;;;;;;10.28;73.24;100778.25;4976901;28;20494;-59
2021/05/28 07:06:19;;;;;;;17.05;12.63;;;;;;;10.28;72.95;100777.38;4976730;28;20039;-59
2021/05/28 07:08:45;;;;;;;15.02;11.20;;;;;;;10.29;73.29;100777.44;4977901;28;20035;-59
2021/05/28 07:11:13;;;;;;;16.15;11.05;;;;;;;10.28;73.41;100778.25;4960381;28;20047;-61
2021/05/28 07:13:42;;;;;;;20.25;13.70;;;;;;;10.29;73.15;100785.22;4977325;28;20035;-60
2021/05/28 07:16:07;;;;;;;16.38;13.05;;;;;;;10.30;72.98;100786.97;4977985;28;20122;-60
2021/05/28 07:18:32;;;;;;;16.98;12.57;;;;;;;10.30;73.02;100779.19;4977848;28;20142;-60
2021/05/28 07:20:58;;;;;;;15.23;10.70;;;;;;;10.30;73.33;100776.59;4977795;28;20508;-60
2021/05/28 07:23:25;;;;;;;16.30;11.93;;;;;;;10.31;73.18;100774.88;4977637;28;20038;-59
2021/05/28 07:25:50;;;;;;;16.30;11.23;;;;;;;10.32;73.28;100776.63;4976198;28;20109;-60
2021/05/28 07:28:20;;;;;;;24.60;13.00;;;;;;;10.31;72.98;100780.94;4977214;28;20517;-60
2021/05/28 07:30:51;;;;;;;17.30;11.23;;;;;;;10.31;73.34;100780.06;4976803;28;20038;-60
2021/05/28 07:33:19;;;;;;;18.30;12.00;;;;;;;10.32;73.37;100779.22;4977280;28;20035;-60
2021/05/28 07:35:47;;;;;;;15.45;12.20;;;;;;;10.33;73.14;100781.88;4977376;28;20380;-60
2021/05/28 07:38:13;;;;;;;17.00;12.48;;;;;;;10.34;73.45;100782.75;4977412;28;20494;-59
2021/05/28 07:40:39;;;;;;;16.98;12.20;;;;;;;10.35;73.10;100781.91;4976159;28;20046;-60
2021/05/28 07:43:07;;;;;;;16.83;12.57;;;;;;;10.35;73.23;100777.59;4977067;28;20041;-59
2021/05/28 07:45:37;;;;;;;19.05;12.63;;;;;;;10.35;73.20;100772.41;4960083;28;20498;-60
2021/05/28 07:48:05;;;;;;;21.65;12.68;;;;;;;10.35;73.00;100776.72;4977072;28;20038;-60
2021/05/28 07:50:48;;;;;;;17.63;11.38;;;;;;;10.36;73.34;100768.13;4959481;28;20026;-60
2021/05/28 07:53:22;;;;;;;18.08;11.93;;;;;;;10.35;73.18;100774.13;4977133;28;20504;-59
2021/05/28 07:55:50;;;;;;;17.30;11.40;;;;;;;10.36;73.16;100778.47;4960233;28;20096;-59
2021/05/28 07:58:18;;;;;;;14.30;10.85;;;;;;;10.35;73.39;100775.00;4975748;28;20290;-59
2021/05/28 08:00:43;;;;;;;15.70;10.65;;;;;;;10.36;73.10;100774.16;4977167;28;20039;-59
2021/05/28 08:03:11;;;;;;;15.23;11.13;;;;;;;10.39;73.23;100777.72;4976911;28;20121;-59
2021/05/28 08:05:37;;;;;;;15.15;10.95;;;;;;;10.38;73.16;100781.09;4976904;28;20035;-60
2021/05/28 08:08:03;;;;;;;16.27;11.45;;;;;;;10.37;73.42;100772.47;4975579;28;20454;-59
2021/05/28 08:10:29;;;;;;;15.90;10.80;;;;;;;10.38;72.95;100779.44;4959906;28;20035;-60
2021/05/28 08:12:56;;;;;;;16.13;11.25;;;;;;;10.39;73.48;100772.53;4977119;28;20053;-59
2021/05/28 08:15:23;;;;;;;16.67;11.77;;;;;;;10.39;73.10;100776.03;4959297;28;20035;-60
2021/05/28 08:17:49;;;;;;;16.63;11.25;;;;;;;10.40;72.91;100782.06;4976710;28;20041;-59
2021/05/28 08:20:16;;;;;;;16.92;10.48;;;;;;;10.41;72.99;100783.81;4976475;28;20390;-60
2021/05/28 08:22:44;;;;;;;17.65;10.65;;;;;;;10.41;73.49;100786.41;4976936;28;20077;-60
2021/05/28 08:25:10;;;;;;;15.30;10.40;;;;;;;10.42;73.25;100780.41;4975369;28;20495;-59
2021/05/28 08:27:35;;;;;;;14.45;10.35;;;;;;;10.42;73.10;100783.88;4959040;28;20043;-60
2021/05/28 08:30:01;;;;;;;14.07;10.52;;;;;;;10.44;73.06;100789.97;4975494;28;20085;-60
2021/05/28 08:32:26;;;;;;;16.30;10.80;;;;;;;10.44;73.22;100781.31;4976297;28;20474;-59
2021/05/28 08:34:54;;;;;;;17.15;11.40;;;;;;;10.44;73.21;100784.78;4975183;28;20041;-59
2021/05/28 08:37:19;;;;;;;18.35;11.30;;;;;;;10.46;72.86;100779.66;4975232;28;20065;-59
2021/05/28 08:39:44;;;;;;;13.57;9.40;;;;;;;10.46;73.08;100779.66;4976366;28;20446;-59
2021/05/28 08:42:11;;;;;;;14.18;10.30;;;;;;;10.47;73.46;100771.91;4976311;28;20081;-59
2021/05/28 08:44:39;;;;;;;14.18;9.82;;;;;;;10.47;73.10;100778.81;4958892;28;20102;-59
2021/05/28 08:47:04;;;;;;;14.88;10.50;;;;;;;10.48;73.48;100772.81;4958579;28;20459;-60
2021/05/28 08:49:30;;;;;;;13.40;10.27;;;;;;;10.47;73.29;100764.13;4976091;28;20529;-60
2021/05/28 08:51:57;;;;;;;14.90;10.65;;;;;;;10.48;73.21;100765.91;4974887;28;20495;-60
2021/05/28 08:54:26;;;;;;;14.98;10.50;;;;;;;10.49;73.15;100764.22;4958755;28;20046;-59
2021/05/28 08:56:54;;;;;;;12.68;9.43;;;;;;;10.50;73.40;100758.19;4958766;28;20406;-59
2021/05/28 08:59:20;;;;;;;14.20;9.18;;;;;;;10.51;73.20;100755.63;4958730;28;20054;-59
2021/05/28 09:01:45;;;;;;;13.90;9.20;;;;;;;10.51;73.20;100763.41;4974548;28;20065;-59
2021/05/28 09:04:11;;;;;;;16.50;10.15;;;;;;;10.53;73.28;100767.75;4974579;28;20083;-59
2021/05/28 09:06:45;;;;;;;11.98;8.63;;;;;;;10.54;72.93;100760.00;4975999;28;20041;-60
2021/05/28 09:09:20;;;;;;;12.02;9.35;;;;;;;10.55;73.06;100761.75;4958690;28;20043;-59
2021/05/28 09:12:12;;;;;;;16.52;9.13;;;;;;;10.56;73.26;100760.94;4974531;28;20042;-59
2021/05/28 09:14:41;;;;;;;17.20;10.05;;;;;;;10.60;73.14;100760.19;4970237;28;20434;-60
2021/05/28 09:17:10;;;;;;;12.20;9.27;;;;;;;10.61;73.34;100750.69;4974462;28;20031;-59
2021/05/28 09:19:37;;;;;;;14.02;8.10;;;;;;;10.61;73.28;100754.16;4958785;28;20058;-59
2021/05/28 09:22:08;;;;;;;15.30;9.00;;;;;;;10.63;73.10;100751.59;4975441;28;20027;-60
2021/05/28 09:24:42;;;;;;;13.50;8.90;;;;;;;10.63;72.88;100749.00;4957996;28;20062;-59
2021/05/28 09:27:18;;;;;;;18.02;8.70;;;;;;;10.64;73.04;100741.28;4975137;28;20031;-59
2021/05/28 09:30:12;;;;;;;13.85;7.78;;;;;;;10.66;73.16;100739.63;4958673;28;20403;-59
2021/05/28 09:32:44;;;;;;;10.35;7.82;;;;;;;10.66;72.91;100744.81;4958351;28;20046;-60
2021/05/28 09:35:15;;;;;;;15.90;9.68;;;;;;;10.69;73.10;100749.19;4975302;28;20069;-60
2021/05/28 09:37:47;;;;;;;11.45;8.20;;;;;;;10.71;72.86;100747.53;4975237;28;20039;-60
2021/05/28 09:40:18;;;;;;;14.10;8.98;;;;;;;10.72;73.24;100735.41;4958291;28;20027;-60
2021/05/28 09:42:57;;;;;;;12.48;8.18;;;;;;;10.74;73.05;100731.16;4975347;28;20523;-60
2021/05/28 09:45:36;;;;;;;11.07;7.30;;;;;;;10.74;72.81;100732.06;4958020;28;20038;-60
2021/05/28 09:48:04;;;;;;;12.40;8.40;;;;;;;10.77;73.39;100728.66;4957582;28;20034;-59
2021/05/28 09:50:34;;;;;;;11.68;8.82;;;;;;;10.78;72.91;100733.00;4975290;28;20039;-60
2021/05/28 09:53:40;;;;;;;8.63;6.75;;;;;;;10.79;73.01;100725.25;4974861;28;20126;-59
2021/05/28 09:56:31;;;;;;;14.07;7.90;;;;;;;10.80;73.10;100724.41;4974659;28;20042;-59
2021/05/28 09:59:07;;;;;;;13.43;8.27;;;;;;;10.81;72.86;100720.13;4975437;28;20509;-59
2021/05/28 10:01:35;;;;;;;10.70;7.78;;;;;;;10.82;72.94;100711.50;4957381;28;20042;-60
2021/05/28 10:04:07;;;;;;;13.38;8.00;;;;;;;10.84;73.02;100712.41;4957930;28;20134;-60
2021/05/28 10:06:37;;;;;;;11.70;7.88;;;;;;;10.84;73.06;100716.72;4974779;28;20038;-60
2021/05/28 10:09:09;;;;;;;12.32;8.98;;;;;;;10.86;72.80;100712.47;4957512;28;20038;-60
2021/05/28 10:11:37;;;;;;;13.38;7.43;;;;;;;10.87;73.09;100712.47;4957993;28;20074;-60
2021/05/28 10:14:06;;;;;;;14.75;8.52;;;;;;;10.88;72.72;100716.84;4957766;28;20039;-59
2021/05/28 10:16:31;;;;;;;11.23;7.97;;;;;;;10.91;73.11;100719.50;4974588;28;20078;-59
2021/05/28 10:18:58;;;;;;;12.75;7.35;;;;;;;10.92;72.81;100715.19;4957459;28;20046;-59
2021/05/28 10:21:25;;;;;;;13.60;8.05;;;;;;;10.93;72.83;100703.97;4957410;28;20481;-59
2021/05/28 10:23:51;;;;;;;9.75;8.02;;;;;;;10.94;72.66;100709.22;4957359;28;20450;-60
2021/05/28 10:26:28;;;;;;;10.10;7.28;;;;;;;10.94;72.75;100710.91;4973396;28;20553;-60
2021/05/28 10:28:54;;;;;;;7.78;6.47;;;;;;;10.94;72.75;100703.13;4957442;28;20125;-60
2021/05/28 10:31:39;;;;;;;8.65;6.45;;;;;;;10.93;72.95;100697.09;4973648;28;20067;-60
2021/05/28 10:34:05;;;;;;;11.07;7.28;;;;;;;10.92;72.78;100705.69;4973206;28;20042;-59
2021/05/28 10:36:42;;;;;;;14.13;7.50;;;;;;;10.93;72.89;100703.97;4973130;28;20039;-59
2021/05/28 10:39:10;;;;;;;12.02;6.90;;;;;;;10.95;72.67;100699.72;4957643;28;20057;-60
2021/05/28 10:41:46;;;;;;;9.98;6.85;;;;;;;10.96;72.93;100697.16;4974411;28;20046;-59
2021/05/28 10:44:14;;;;;;;7.47;6.65;;;;;;;10.96;72.53;100694.56;4973454;28;20038;-59
2021/05/28 10:46:55;;;;;;;10.23;7.68;;;;;;;10.98;72.75;100696.34;4957112;28;20093;-60
2021/05/28 10:49:47;;;;;;;11.35;6.78;;;;;;;11.00;72.56;100694.63;4974335;28;20031;-59
2021/05/28 10:52:36;;;;;;;15.43;6.93;;;;;;;11.01;72.52;100689.50;4966013;28;20047;-60
2021/05/28 10:55:08;;;;;;;9.73;7.75;;;;;;;11.01;72.64;100689.50;4973860;28;20050;-60
2021/05/28 10:57:44;;;;;;;10.68;7.38;;;;;;;11.00;72.42;100682.56;4973254;28;20102;-60
2021/05/28 11:00:11;;;;;;;8.82;6.68;;;;;;;11.02;72.54;100678.28;4957140;28;20031;-59
2021/05/28 11:02:47;;;;;;;12.23;7.45;;;;;;;11.03;72.79;100684.34;4972998;28;20097;-59
2021/05/28 11:05:14;;;;;;;13.90;6.97;;;;;;;11.04;72.59;100676.59;4956958;28;20065;-60
2021/05/28 11:07:45;;;;;;;9.35;6.78;;;;;;;11.05;72.72;100677.47;4956805;28;20039;-60
2021/05/28 11:10:19;;;;;;;12.77;6.97;;;;;;;11.05;72.40;100673.19;4974619;28;20042;-60
2021/05/28 11:12:45;;;;;;;10.18;8.07;;;;;;;11.07;72.64;100680.97;4956932;28;20606;-60
2021/05/28 11:15:27;;;;;;;11.38;7.22;;;;;;;11.07;72.51;100675.78;4974288;28;20130;-60
2021/05/28 11:18:01;;;;;;;10.75;7.50;;;;;;;11.08;72.65;100667.19;4973940;28;20065;-60
2021/05/28 11:20:29;;;;;;;;;;;;;;;11.06;72.38;100671.44;4974802;28;20030;-59
2021/05/28 11:22:56;;;;;;;10.23;6.75;;;;;;;11.06;72.78;100661.94;4972840;28;19914;-60